^^
Datos históricos de la estación: Murcia-Puente Tocinos
Diario Informe para Marzo 30, 2019 Unidades:  Ambas    Ingés   Métrico
Diario Semanal Mensual Anual
  Máxima: Mínima: Promedio:
Temperatura: 94.8 °F /  34.9 °C 72.3 °F /  22.4 °C 83.8 °F /  28.8 °C
Punto de rocio: 60.6 °F /  15.9 °C 45 °F /  7.2 °C 54.7 °F /  12.6 °C
Humedad: 57% 18.6% 39%
Velocidad viento: 10.7mph /  17.2km/h - 4.8mph /  7.8km/h
Racha viento: 20mph /  32.2km/h - -
Viento- - ESE
Presión: 30 in /  1015.4 hPa 29.9 in /  1013.4 hPa -
Precipitación: 0 in /  0.0 mm    
 
 
Tabla de datos para Marzo 30, 2019
Hora Temperatura Punto de rocio Presión Viento Velocidad viento Racha viento Humedad Intensidad lluvia(por hora) Nubes
00:04 80.1 °F /  26.7 °C 59.2 °F /  15.1 °C 29.9in /  1013.9hPa NE 2.4mph /  3.9km/h 5mph /  8km/h 49% 0in /  0.0mm
00:09 80.1 °F /  26.7 °C 59.2 °F /  15.1 °C 29.9in /  1013.9hPa NE 2.4mph /  3.9km/h 5mph /  8km/h 49% 0in /  0.0mm
00:14 79.9 °F /  26.6 °C 59.2 °F /  15.1 °C 29.9in /  1013.9hPa NE 2.4mph /  3.9km/h 3.5mph /  5.6km/h 49.2% 0in /  0.0mm
00:19 79.7 °F /  26.5 °C 59.4 °F /  15.2 °C 29.9in /  1014.0hPa NNE 2.2mph /  3.5km/h 3mph /  4.8km/h 50% 0in /  0.0mm
00:24 79.5 °F /  26.4 °C 59.2 °F /  15.1 °C 29.9in /  1014.0hPa NNE 1.4mph /  2.2km/h 4mph /  6.4km/h 50% 0in /  0.0mm
00:29 79.3 °F /  26.3 °C 59.2 °F /  15.1 °C 29.9in /  1014.0hPa NNE 1.4mph /  2.2km/h 5mph /  8km/h 50% 0in /  0.0mm
00:34 79.3 °F /  26.3 °C 59.2 °F /  15.1 °C 30in /  1014.3hPa NNE 1.4mph /  2.2km/h 5mph /  8km/h 50% 0in /  0.0mm
00:39 79.3 °F /  26.3 °C 59 °F /  15 °C 30in /  1014.3hPa NNE 1.4mph /  2.2km/h 3.5mph /  5.6km/h 50% 0in /  0.0mm
00:44 79.2 °F /  26.2 °C 58.8 °F /  14.9 °C 30in /  1014.3hPa NNE 1.4mph /  2.2km/h 5.2mph /  8.4km/h 50% 0in /  0.0mm
00:49 79.2 °F /  26.2 °C 59.2 °F /  15.1 °C 30in /  1014.3hPa NNE 1.7mph /  2.8km/h 5.8mph /  9.3km/h 50.3% 0in /  0.0mm
00:54 79 °F /  26.1 °C 59.2 °F /  15.1 °C 30in /  1014.2hPa NNE 2.9mph /  4.7km/h 6mph /  9.7km/h 51% 0in /  0.0mm
00:59 78.6 °F /  25.9 °C 59.2 °F /  15.1 °C 30in /  1014.2hPa NNE 2.7mph /  4.3km/h 5mph /  8km/h 51.2% 0in /  0.0mm
01:04 78.4 °F /  25.8 °C 59.4 °F /  15.2 °C 30in /  1014.2hPa North 2mph /  3.2km/h 5.9mph /  9.5km/h 51.9% 0in /  0.0mm
01:09 78.3 °F /  25.7 °C 59.2 °F /  15.1 °C 30in /  1014.2hPa North 2.2mph /  3.6km/h 6mph /  9.7km/h 52% 0in /  0.0mm
01:14 78.1 °F /  25.6 °C 59 °F /  15 °C 30in /  1014.2hPa North 2.9mph /  4.7km/h 5mph /  8km/h 52% 0in /  0.0mm
01:19 78.1 °F /  25.6 °C 59 °F /  15 °C 30in /  1014.3hPa NE 2.6mph /  4.2km/h 5mph /  8km/h 52% 0in /  0.0mm
01:24 78.1 °F /  25.6 °C 59 °F /  15 °C 30in /  1014.3hPa ENE 1.8mph /  2.9km/h 5mph /  8km/h 52.2% 0in /  0.0mm
01:29 77.7 °F /  25.4 °C 59.2 °F /  15.1 °C 30in /  1014.3hPa Este 1.9mph /  3km/h 5mph /  8km/h 53% 0in /  0.0mm
01:34 77.5 °F /  25.3 °C 59.2 °F /  15.1 °C 30in /  1014.3hPa Este 2mph /  3.2km/h 3.6mph /  5.8km/h 53% 0in /  0.0mm
01:39 77.4 °F /  25.2 °C 59.2 °F /  15.1 °C 30in /  1014.2hPa Este 1.9mph /  3.1km/h 4.6mph /  7.4km/h 53.3% 0in /  0.0mm
01:44 77.2 °F /  25.1 °C 59.2 °F /  15.1 °C 30in /  1014.2hPa Este 1.8mph /  2.9km/h 5mph /  8km/h 54% 0in /  0.0mm
01:49 77.2 °F /  25.1 °C 59.2 °F /  15.1 °C 30in /  1014.3hPa NE 1.8mph /  2.9km/h 4.7mph /  7.6km/h 54% 0in /  0.0mm
01:54 77 °F /  25 °C 59 °F /  15 °C 30in /  1014.3hPa ENE 1.8mph /  2.9km/h 5mph /  8km/h 54% 0in /  0.0mm
01:59 76.8 °F /  24.9 °C 59 °F /  15 °C 30in /  1014.3hPa Este 1.9mph /  3km/h 5mph /  8km/h 54.1% 0in /  0.0mm
02:04 76.6 °F /  24.8 °C 59.4 °F /  15.2 °C 30in /  1014.4hPa Este 2mph /  3.2km/h 4mph /  6.4km/h 54.9% 0in /  0.0mm
02:09 76.6 °F /  24.8 °C 59.4 °F /  15.2 °C 30in /  1014.4hPa Este 2mph /  3.2km/h 4mph /  6.4km/h 55% 0in /  0.0mm
02:14 76.6 °F /  24.8 °C 59.4 °F /  15.2 °C 30in /  1014.4hPa ESE 2mph /  3.2km/h 4mph /  6.4km/h 55% 0in /  0.0mm
02:19 76.6 °F /  24.8 °C 59.4 °F /  15.2 °C 30in /  1014.5hPa SSE 2mph /  3.2km/h 5mph /  8km/h 55% 0in /  0.0mm
02:24 76.6 °F /  24.8 °C 59.2 °F /  15.1 °C 30in /  1014.5hPa SSE 2mph /  3.2km/h 5mph /  8km/h 55% 0in /  0.0mm
02:29 76.6 °F /  24.8 °C 59.4 °F /  15.2 °C 30in /  1014.5hPa SSE 1.9mph /  3km/h 3mph /  4.8km/h 55% 0in /  0.0mm
02:34 76.6 °F /  24.8 °C 59.4 °F /  15.2 °C 30in /  1014.5hPa SSE 1.4mph /  2.2km/h 2.9mph /  4.7km/h 55% 0in /  0.0mm
02:39 76.6 °F /  24.8 °C 59.4 °F /  15.2 °C 30in /  1014.3hPa SSE 1.4mph /  2.2km/h 3mph /  4.8km/h 55% 0in /  0.0mm
02:44 76.5 °F /  24.7 °C 59.2 °F /  15.1 °C 30in /  1014.3hPa SSE 1.4mph /  2.2km/h 3mph /  4.8km/h 55% 0in /  0.0mm
02:49 76.5 °F /  24.7 °C 59.2 °F /  15.1 °C 30in /  1014.4hPa SE 1.1mph /  1.7km/h 3.6mph /  5.8km/h 55% 0in /  0.0mm
02:54 76.5 °F /  24.7 °C 59.2 °F /  15.1 °C 30in /  1014.4hPa Calm   4mph /  6.4km/h 55% 0in /  0.0mm
02:59 76.5 °F /  24.7 °C 59.4 °F /  15.2 °C 30in /  1014.4hPa ESE 0.4mph /  0.7km/h 3mph /  4.8km/h 55.4% 0in /  0.0mm
03:04 76.5 °F /  24.7 °C 59.4 °F /  15.2 °C 30in /  1014.4hPa NE 1.4mph /  2.2km/h 4.6mph /  7.4km/h 55.8% 0in /  0.0mm
03:09 76.1 °F /  24.5 °C 59.4 °F /  15.2 °C 30in /  1014.3hPa NNE 1.5mph /  2.4km/h 5mph /  8km/h 56% 0in /  0.0mm
03:14 75.9 °F /  24.4 °C 59.4 °F /  15.2 °C 30in /  1014.3hPa NNE 1.8mph /  2.9km/h 2mph /  3.2km/h 56.4% 0in /  0.0mm
03:19 75.7 °F /  24.3 °C 59.4 °F /  15.2 °C 30in /  1014.3hPa NNE 1.4mph /  2.3km/h   57% 0in /  0.0mm
03:24 75.7 °F /  24.3 °C 59.2 °F /  15.1 °C 30in /  1014.2hPa Calm     56.7% 0in /  0.0mm
03:29 75.7 °F /  24.3 °C 58.8 °F /  14.9 °C 30in /  1014.2hPa Calm   2.9mph /  4.7km/h 55.8% 0in /  0.0mm
03:34 75.6 °F /  24.2 °C 58.1 °F /  14.5 °C 30in /  1014.2hPa Calm   3.1mph /  5km/h 54.8% 0in /  0.0mm
03:39 75.6 °F /  24.2 °C 57 °F /  13.9 °C 29.9in /  1014.1hPa ESE 0.3mph /  0.5km/h 4mph /  6.4km/h 52.6% 0in /  0.0mm
03:44 75.7 °F /  24.3 °C 56.5 °F /  13.6 °C 29.9in /  1014.1hPa ESE 1.4mph /  2.2km/h 5mph /  8km/h 51.3% 0in /  0.0mm
03:49 75.7 °F /  24.3 °C 56.3 °F /  13.5 °C 29.9in /  1014.1hPa ESE 1.4mph /  2.2km/h 3mph /  4.8km/h 51% 0in /  0.0mm
03:54 75.7 °F /  24.3 °C 56.7 °F /  13.7 °C 29.9in /  1014.0hPa ESE 1.4mph /  2.2km/h 2.3mph /  3.7km/h 51.6% 0in /  0.0mm
03:59 75.7 °F /  24.3 °C 56.8 °F /  13.8 °C 29.9in /  1014.0hPa ESE 1.2mph /  2km/h 2.9mph /  4.7km/h 52.1% 0in /  0.0mm
04:04 75.6 °F /  24.2 °C 56.3 °F /  13.5 °C 29.9in /  1014.0hPa Calm   3.6mph /  5.8km/h 51.3% 0in /  0.0mm
04:09 75.4 °F /  24.1 °C 55.9 °F /  13.3 °C 29.9in /  1014.0hPa SSE 0.7mph /  1.1km/h 5.2mph /  8.4km/h 51% 0in /  0.0mm
04:14 75.2 °F /  24 °C 55.8 °F /  13.2 °C 29.9in /  1014.0hPa Sur 2.9mph /  4.7km/h 5.2mph /  8.4km/h 51% 0in /  0.0mm
04:19 75 °F /  23.9 °C 55.9 °F /  13.3 °C 29.9in /  1014.0hPa Sur 2.9mph /  4.7km/h 5.2mph /  8.4km/h 51.5% 0in /  0.0mm
04:24 75 °F /  23.9 °C 56.3 °F /  13.5 °C 29.9in /  1013.9hPa SSO 3.1mph /  5km/h 5.9mph /  9.5km/h 52% 0in /  0.0mm
04:29 75.2 °F /  24 °C 56.5 °F /  13.6 °C 29.9in /  1013.9hPa SSO 3.1mph /  5km/h 6mph /  9.7km/h 52% 0in /  0.0mm
04:34 75.4 °F /  24.1 °C 56.5 °F /  13.6 °C 29.9in /  1013.9hPa SO 3.1mph /  5km/h 5mph /  8km/h 52% 0in /  0.0mm
04:39 75.4 °F /  24.1 °C 56.5 °F /  13.6 °C 29.9in /  1013.8hPa SO 2.9mph /  4.6km/h 5mph /  8km/h 52% 0in /  0.0mm
04:44 75.4 °F /  24.1 °C 56.1 °F /  13.4 °C 29.9in /  1013.8hPa SO 2mph /  3.2km/h 5.9mph /  9.5km/h 51.3% 0in /  0.0mm
04:49 75.4 °F /  24.1 °C 56.1 °F /  13.4 °C 29.9in /  1013.8hPa SO 2.1mph /  3.4km/h 6mph /  9.7km/h 51.3% 0in /  0.0mm
04:54 75.4 °F /  24.1 °C 55.9 °F /  13.3 °C 29.9in /  1013.6hPa Sur 2.4mph /  3.9km/h 6.9mph /  11.1km/h 51% 0in /  0.0mm
04:59 75.2 °F /  24 °C 55.8 °F /  13.2 °C 29.9in /  1013.6hPa SSO 2.7mph /  4.4km/h 7mph /  11.3km/h 50.9% 0in /  0.0mm
05:04 74.8 °F /  23.8 °C 55.6 °F /  13.1 °C 29.9in /  1013.6hPa SSO 3.6mph /  5.8km/h 6mph /  9.7km/h 51% 0in /  0.0mm
05:09 74.7 °F /  23.7 °C 55.8 °F /  13.2 °C 29.9in /  1013.5hPa SO 3.4mph /  5.5km/h 6mph /  9.7km/h 51.8% 0in /  0.0mm
05:14 74.7 °F /  23.7 °C 55.9 °F /  13.3 °C 29.9in /  1013.5hPa SO 2.9mph /  4.7km/h 4mph /  6.4km/h 52% 0in /  0.0mm
05:19 74.7 °F /  23.7 °C 55.4 °F /  13 °C 29.9in /  1013.5hPa SSO 2.6mph /  4.2km/h 4mph /  6.4km/h 51.2% 0in /  0.0mm
05:24 74.7 °F /  23.7 °C 55.2 °F /  12.9 °C 29.9in /  1013.5hPa Sur 1.8mph /  2.9km/h 4.7mph /  7.6km/h 51% 0in /  0.0mm
05:29 74.7 °F /  23.7 °C 55.2 °F /  12.9 °C 29.9in /  1013.5hPa SSO 1.9mph /  3.1km/h 5.8mph /  9.3km/h 51.1% 0in /  0.0mm
05:34 74.5 °F /  23.6 °C 55.6 °F /  13.1 °C 29.9in /  1013.6hPa SO 2.4mph /  3.9km/h 6mph /  9.7km/h 51.8% 0in /  0.0mm
05:39 74.3 °F /  23.5 °C 55.6 °F /  13.1 °C 29.9in /  1013.6hPa SO 2.5mph /  4.1km/h 6.9mph /  11.1km/h 52% 0in /  0.0mm
05:44 74.1 °F /  23.4 °C 55.4 °F /  13 °C 29.9in /  1013.6hPa SO 3.1mph /  5km/h 8.1mph /  13km/h 52% 0in /  0.0mm
05:49 73.9 °F /  23.3 °C 55.2 °F /  12.9 °C 29.9in /  1013.7hPa OSO 3.5mph /  5.6km/h 8mph /  12.9km/h 52% 0in /  0.0mm
05:54 73.9 °F /  23.3 °C 55.2 °F /  12.9 °C 29.9in /  1013.7hPa OSO 4.7mph /  7.6km/h 7mph /  11.3km/h 52% 0in /  0.0mm
05:59 73.8 °F /  23.2 °C 55 °F /  12.8 °C 29.9in /  1013.7hPa OSO 4.3mph /  7km/h 9.2mph /  14.8km/h 52% 0in /  0.0mm
06:04 73.8 °F /  23.2 °C 55 °F /  12.8 °C 29.9in /  1013.8hPa SO 3.6mph /  5.8km/h 9mph /  14.5km/h 52% 0in /  0.0mm
06:09 73.6 °F /  23.1 °C 54.9 °F /  12.7 °C 29.9in /  1013.8hPa SO 3.9mph /  6.2km/h 8.1mph /  13km/h 52% 0in /  0.0mm
06:14 73.6 °F /  23.1 °C 54.9 °F /  12.7 °C 29.9in /  1013.8hPa SO 4.7mph /  7.6km/h 8.7mph /  14km/h 52% 0in /  0.0mm
06:19 73.6 °F /  23.1 °C 54.9 °F /  12.7 °C 29.9in /  1013.8hPa SO 4.8mph /  7.8km/h 9.2mph /  14.8km/h 52% 0in /  0.0mm
06:24 73.4 °F /  23 °C 54.7 °F /  12.6 °C 29.9in /  1013.8hPa OSO 5.2mph /  8.4km/h 9.2mph /  14.8km/h 52% 0in /  0.0mm
06:29 73.2 °F /  22.9 °C 54.5 °F /  12.5 °C 29.9in /  1013.8hPa OSO 5.1mph /  8.2km/h 9mph /  14.5km/h 52.1% 0in /  0.0mm
06:34 73 °F /  22.8 °C 54.9 °F /  12.7 °C 29.9in /  1013.9hPa OSO 4.7mph /  7.6km/h 7mph /  11.3km/h 53% 0in /  0.0mm
06:39 72.9 °F /  22.7 °C 54.7 °F /  12.6 °C 29.9in /  1013.9hPa OSO 4.5mph /  7.2km/h 6mph /  9.7km/h 53% 0in /  0.0mm
06:44 72.9 °F /  22.7 °C 55 °F /  12.8 °C 29.9in /  1013.9hPa Oeste 3.6mph /  5.8km/h 6mph /  9.7km/h 53.7% 0in /  0.0mm
06:49 72.9 °F /  22.7 °C 55.2 °F /  12.9 °C 29.9in /  1013.9hPa Oeste 3.4mph /  5.5km/h 5mph /  8km/h 54% 0in /  0.0mm
06:54 72.9 °F /  22.7 °C 54.9 °F /  12.7 °C 29.9in /  1013.9hPa SO 2.9mph /  4.7km/h 5.8mph /  9.3km/h 53.3% 0in /  0.0mm
06:59 72.9 °F /  22.7 °C 54 °F /  12.2 °C 29.9in /  1013.9hPa SSO 3.1mph /  5km/h 7.4mph /  11.9km/h 51.6% 0in /  0.0mm
07:04 72.7 °F /  22.6 °C 53.6 °F /  12 °C 29.9in /  1013.9hPa SSO 3.6mph /  5.8km/h 9.2mph /  14.8km/h 51% 0in /  0.0mm
07:09 72.7 °F /  22.6 °C 53.4 °F /  11.9 °C 29.9in /  1013.9hPa SSO 3.9mph /  6.2km/h 9.2mph /  14.8km/h 51% 0in /  0.0mm
07:14 72.7 °F /  22.6 °C 53.4 °F /  11.9 °C 29.9in /  1013.9hPa SO 4.7mph /  7.6km/h 9mph /  14.5km/h 51% 0in /  0.0mm
07:19 72.7 °F /  22.6 °C 53.2 °F /  11.8 °C 29.9in /  1014.0hPa SO 4.5mph /  7.3km/h 7mph /  11.3km/h 50.5% 0in /  0.0mm
07:24 72.7 °F /  22.6 °C 53.1 °F /  11.7 °C 29.9in /  1014.0hPa OSO 4mph /  6.5km/h 6mph /  9.7km/h 50% 0in /  0.0mm
07:29 72.9 °F /  22.7 °C 53.1 °F /  11.7 °C 29.9in /  1014.0hPa OSO 4mph /  6.5km/h 6.9mph /  11.1km/h 50% 0in /  0.0mm
07:34 72.9 °F /  22.7 °C 53.1 °F /  11.7 °C 29.9in /  1014.1hPa OSO 4mph /  6.5km/h 7mph /  11.3km/h 50% 0in /  0.0mm
07:39 72.7 °F /  22.6 °C 53.1 °F /  11.7 °C 29.9in /  1014.1hPa OSO 3.9mph /  6.3km/h 6.2mph /  10km/h 50% 0in /  0.0mm
07:44 72.5 °F /  22.5 °C 52.9 °F /  11.6 °C 29.9in /  1014.1hPa Oeste 3.6mph /  5.8km/h 7.4mph /  11.9km/h 50% 0in /  0.0mm
07:49 72.3 °F /  22.4 °C 53.1 °F /  11.7 °C 29.9in /  1014.1hPa Oeste 3.7mph /  6km/h 7mph /  11.3km/h 50.6% 0in /  0.0mm
07:54 72.3 °F /  22.4 °C 52.7 °F /  11.5 °C 29.9in /  1014.1hPa Oeste 4.3mph /  6.9km/h 6mph /  9.7km/h 50.2% 0in /  0.0mm
07:59 72.5 °F /  22.5 °C 52.7 °F /  11.5 °C 29.9in /  1014.1hPa Oeste 4.1mph /  6.6km/h 6.9mph /  11.1km/h 50% 0in /  0.0mm
08:04 72.7 °F /  22.6 °C 52.7 °F /  11.5 °C 30in /  1014.3hPa OSO 3.6mph /  5.8km/h 7mph /  11.3km/h 49.6% 0in /  0.0mm
08:09 72.9 °F /  22.7 °C 52.5 °F /  11.4 °C 30in /  1014.3hPa Oeste 3.6mph /  5.8km/h 6mph /  9.7km/h 49% 0in /  0.0mm
08:14 72.9 °F /  22.7 °C 52.7 °F /  11.5 °C 30in /  1014.3hPa Oeste 3.6mph /  5.8km/h 6mph /  9.7km/h 49% 0in /  0.0mm
08:19 73.2 °F /  22.9 °C 52.7 °F /  11.5 °C 30in /  1014.4hPa Oeste 3.2mph /  5.2km/h 5mph /  8km/h 48.5% 0in /  0.0mm
08:24 73.8 °F /  23.2 °C 52.5 °F /  11.4 °C 30in /  1014.4hPa OSO 2mph /  3.2km/h 5mph /  8km/h 47.5% 0in /  0.0mm
08:29 73.9 °F /  23.3 °C 52.5 °F /  11.4 °C 30in /  1014.4hPa Oeste 2.2mph /  3.5km/h 5mph /  8km/h 47% 0in /  0.0mm
08:34 74.3 °F /  23.5 °C 52.7 °F /  11.5 °C 30in /  1014.5hPa Oeste 2.9mph /  4.7km/h 5.4mph /  8.7km/h 47% 0in /  0.0mm
08:39 74.7 °F /  23.7 °C 53.8 °F /  12.1 °C 30in /  1014.5hPa SO 3mph /  4.9km/h 6mph /  9.7km/h 48.2% 0in /  0.0mm
08:44 74.8 °F /  23.8 °C 55 °F /  12.8 °C 30in /  1014.5hPa SSO 3.6mph /  5.8km/h 6mph /  9.7km/h 50.3% 0in /  0.0mm
08:49 75 °F /  23.9 °C 55.4 °F /  13 °C 30in /  1014.5hPa OSO 3.4mph /  5.5km/h 6mph /  9.7km/h 50.5% 0in /  0.0mm
08:54 75.4 °F /  24.1 °C 55.4 °F /  13 °C 30in /  1014.5hPa OSO 2.9mph /  4.7km/h 5mph /  8km/h 49.9% 0in /  0.0mm
08:59 75.9 °F /  24.4 °C 55.2 °F /  12.9 °C 30in /  1014.5hPa SO 2.7mph /  4.4km/h 5.8mph /  9.3km/h 48.5% 0in /  0.0mm
09:04 76.6 °F /  24.8 °C 54.5 °F /  12.5 °C 30in /  1014.6hPa Oeste 2.4mph /  3.9km/h 6mph /  9.7km/h 46.6% 0in /  0.0mm
09:09 77.2 °F /  25.1 °C 54 °F /  12.2 °C 30in /  1014.6hPa SSO 2.3mph /  3.7km/h 5.8mph /  9.3km/h 44.5% 0in /  0.0mm
09:14 77.7 °F /  25.4 °C 53.4 °F /  11.9 °C 30in /  1014.6hPa SSO 2mph /  3.2km/h 6.2mph /  10km/h 43.1% 0in /  0.0mm
09:19 78.1 °F /  25.6 °C 53.1 °F /  11.7 °C 30in /  1014.7hPa SO 2.2mph /  3.6km/h 6mph /  9.7km/h 41.9% 0in /  0.0mm
09:24 78.4 °F /  25.8 °C 52.9 °F /  11.6 °C 30in /  1014.7hPa Oeste 3.1mph /  5km/h 5mph /  8km/h 41% 0in /  0.0mm
09:29 79 °F /  26.1 °C 53.2 °F /  11.8 °C 30in /  1014.7hPa OSO 2.9mph /  4.7km/h 5.9mph /  9.5km/h 40.9% 0in /  0.0mm
09:34 79.3 °F /  26.3 °C 53.4 °F /  11.9 °C 30in /  1015.1hPa Oeste 2.4mph /  3.9km/h 7.4mph /  11.9km/h 40.6% 0in /  0.0mm
09:39 79.5 °F /  26.4 °C 53.1 °F /  11.7 °C 30in /  1015.1hPa OSO 2.9mph /  4.6km/h 8.1mph /  13km/h 40% 0in /  0.0mm
09:44 79.5 °F /  26.4 °C 53.6 °F /  12 °C 30in /  1015.1hPa OSO 4.3mph /  6.9km/h 8mph /  12.9km/h 40.8% 0in /  0.0mm
09:49 79.7 °F /  26.5 °C 54 °F /  12.2 °C 30in /  1015.2hPa OSO 4.2mph /  6.8km/h 7mph /  11.3km/h 41% 0in /  0.0mm
09:54 80.1 °F /  26.7 °C 54.1 °F /  12.3 °C 30in /  1015.2hPa OSO 4mph /  6.5km/h 7mph /  11.3km/h 41% 0in /  0.0mm
09:59 80.4 °F /  26.9 °C 54.3 °F /  12.4 °C 30in /  1015.2hPa OSO 4mph /  6.5km/h 6.9mph /  11.1km/h 40.5% 0in /  0.0mm
10:04 81 °F /  27.2 °C 54.3 °F /  12.4 °C 30in /  1015.2hPa Oeste 4mph /  6.5km/h 7mph /  11.3km/h 40.1% 0in /  0.0mm
10:09 81.1 °F /  27.3 °C 54.5 °F /  12.5 °C 30in /  1015.2hPa ONO 3.8mph /  6.1km/h 6mph /  9.7km/h 40% 0in /  0.0mm
10:14 81.9 °F /  27.7 °C 54.7 °F /  12.6 °C 30in /  1015.2hPa OSO 3.1mph /  5km/h 6.2mph /  10km/h 39.3% 0in /  0.0mm
10:19 82.2 °F /  27.9 °C 54.3 °F /  12.4 °C 30in /  1015.3hPa SO 2.9mph /  4.7km/h 6mph /  9.7km/h 38.2% 0in /  0.0mm
10:24 82.8 °F /  28.2 °C 54.5 °F /  12.5 °C 30in /  1015.3hPa SO 2.4mph /  3.9km/h 5mph /  8km/h 38% 0in /  0.0mm
10:29 83.1 °F /  28.4 °C 54.5 °F /  12.5 °C 30in /  1015.3hPa SSO 2.4mph /  3.9km/h 5.9mph /  9.5km/h 37.6% 0in /  0.0mm
10:34 83.3 °F /  28.5 °C 54.1 °F /  12.3 °C 30in /  1015.4hPa SO 2.4mph /  3.9km/h 9.2mph /  14.8km/h 37% 0in /  0.0mm
10:39 83.3 °F /  28.5 °C 54.3 °F /  12.4 °C 30in /  1015.4hPa SSO 2.7mph /  4.3km/h 9mph /  14.5km/h 36.8% 0in /  0.0mm
10:44 83.8 °F /  28.8 °C 54 °F /  12.2 °C 30in /  1015.4hPa SSO 3.6mph /  5.8km/h 6mph /  9.7km/h 36% 0in /  0.0mm
10:49 84.2 °F /  29 °C 54 °F /  12.2 °C 30in /  1015.4hPa SE 3.3mph /  5.3km/h 6mph /  9.7km/h 35.4% 0in /  0.0mm
10:54 85.1 °F /  29.5 °C 53.8 °F /  12.1 °C 30in /  1015.2hPa ENE 2.4mph /  3.9km/h 5.2mph /  8.4km/h 34.4% 0in /  0.0mm
10:59 85.5 °F /  29.7 °C 54 °F /  12.2 °C 30in /  1015.2hPa SSE 2.4mph /  3.9km/h 5mph /  8km/h 34.1% 0in /  0.0mm
11:04 85.6 °F /  29.8 °C 53.4 °F /  11.9 °C 30in /  1015.2hPa SSO 2.4mph /  3.9km/h 5.2mph /  8.4km/h 33.3% 0in /  0.0mm
11:09 86 °F /  30 °C 53.6 °F /  12 °C 30in /  1015.2hPa ENE 2.5mph /  4km/h 5.9mph /  9.5km/h 33% 0in /  0.0mm
11:14 86.5 °F /  30.3 °C 53.4 °F /  11.9 °C 30in /  1015.2hPa NE 2.9mph /  4.7km/h 6mph /  9.7km/h 32.4% 0in /  0.0mm
11:19 86.7 °F /  30.4 °C 53.4 °F /  11.9 °C 30in /  1015.2hPa NE 2.9mph /  4.7km/h 6mph /  9.7km/h 32.2% 0in /  0.0mm
11:24 87.3 °F /  30.7 °C 53.8 °F /  12.1 °C 30in /  1015.2hPa North 3.1mph /  5km/h 5mph /  8km/h 32.1% 0in /  0.0mm
11:29 87.6 °F /  30.9 °C 53.6 °F /  12 °C 30in /  1015.2hPa NNE 2.9mph /  4.7km/h 5.2mph /  8.4km/h 31.4% 0in /  0.0mm
11:34 88.2 °F /  31.2 °C 53.8 °F /  12.1 °C 30in /  1015.3hPa NNE 2.4mph /  3.9km/h 5.2mph /  8.4km/h 31.1% 0in /  0.0mm
11:39 88.5 °F /  31.4 °C 54 °F /  12.2 °C 30in /  1015.3hPa NNO 2.4mph /  3.9km/h 5.8mph /  9.3km/h 30.9% 0in /  0.0mm
11:44 88.5 °F /  31.4 °C 53.6 °F /  12 °C 30in /  1015.3hPa ONO 2.4mph /  3.9km/h 6mph /  9.7km/h 30.6% 0in /  0.0mm
11:49 88.5 °F /  31.4 °C 54 °F /  12.2 °C 30in /  1015.3hPa ONO 2.7mph /  4.3km/h 6mph /  9.7km/h 31% 0in /  0.0mm
11:54 88.3 °F /  31.3 °C 54 °F /  12.2 °C 30in /  1015.2hPa Oeste 3.6mph /  5.8km/h 6mph /  9.7km/h 31% 0in /  0.0mm
11:59 88.7 °F /  31.5 °C 54.5 °F /  12.5 °C 30in /  1015.2hPa NNE 3.5mph /  5.6km/h 6.9mph /  11.1km/h 31.4% 0in /  0.0mm
12:04 89.2 °F /  31.8 °C 54.5 °F /  12.5 °C 30in /  1015.2hPa ENE 3.1mph /  5km/h 7mph /  11.3km/h 31% 0in /  0.0mm
12:09 90 °F /  32.2 °C 54.5 °F /  12.5 °C 30in /  1015.2hPa Este 3mph /  4.9km/h 6.9mph /  11.1km/h 30.3% 0in /  0.0mm
12:14 90.1 °F /  32.3 °C 54.7 °F /  12.6 °C 30in /  1015.2hPa Este 2.9mph /  4.7km/h 7mph /  11.3km/h 30.2% 0in /  0.0mm
12:19 90.3 °F /  32.4 °C 54.7 °F /  12.6 °C 30in /  1015.2hPa ENE 3mph /  4.9km/h 6.9mph /  11.1km/h 30% 0in /  0.0mm
12:24 90.9 °F /  32.7 °C 55.2 °F /  12.9 °C 30in /  1015.1hPa ENE 3.6mph /  5.8km/h 11.2mph /  18km/h 30% 0in /  0.0mm
12:29 91 °F /  32.8 °C 53.6 °F /  12 °C 30in /  1015.1hPa NE 4mph /  6.4km/h 12mph /  19.3km/h 28.2% 0in /  0.0mm
12:34 90.9 °F /  32.7 °C 53.8 °F /  12.1 °C 30in /  1015.1hPa NE 5.4mph /  8.7km/h 12mph /  19.3km/h 28.5% 0in /  0.0mm
12:39 90.9 °F /  32.7 °C 54.3 °F /  12.4 °C 30in /  1015.1hPa NE 5.6mph /  9km/h 15.2mph /  24.5km/h 29% 0in /  0.0mm
12:44 91 °F /  32.8 °C 54.3 °F /  12.4 °C 30in /  1015.1hPa ENE 6.2mph /  10km/h 15mph /  24.1km/h 29% 0in /  0.0mm
12:49 91 °F /  32.8 °C 54.9 °F /  12.7 °C 30in /  1015.1hPa NE 6.6mph /  10.7km/h 15mph /  24.1km/h 29.4% 0in /  0.0mm
12:54 91.4 °F /  33 °C 54.7 °F /  12.6 °C 30in /  1015.1hPa Este 8.1mph /  13km/h 14mph /  22.5km/h 29.2% 0in /  0.0mm
12:59 91.8 °F /  33.2 °C 54.9 °F /  12.7 °C 30in /  1015.1hPa NE 7.3mph /  11.7km/h 8.1mph /  13km/h 28.8% 0in /  0.0mm
13:04 91.9 °F /  33.3 °C 54.7 °F /  12.6 °C 30in /  1015.1hPa NE 5.4mph /  8.7km/h 9.2mph /  14.8km/h 28.6% 0in /  0.0mm
13:09 92.1 °F /  33.4 °C 54.9 °F /  12.7 °C 30in /  1015.0hPa North 5.2mph /  8.3km/h 9mph /  14.5km/h 28.5% 0in /  0.0mm
13:14 92.7 °F /  33.7 °C 53.8 °F /  12.1 °C 30in /  1015.0hPa Este 4.3mph /  6.9km/h 8.1mph /  13km/h 27.1% 0in /  0.0mm
13:19 93 °F /  33.9 °C 54.1 °F /  12.3 °C 30in /  1015.0hPa NE 4.5mph /  7.3km/h 10.4mph /  16.7km/h 27% 0in /  0.0mm
13:24 93 °F /  33.9 °C 54.5 °F /  12.5 °C 30in /  1014.9hPa NNE 5.2mph /  8.4km/h 10.4mph /  16.7km/h 27.4% 0in /  0.0mm
13:29 93.6 °F /  34.2 °C 54.1 °F /  12.3 °C 30in /  1014.9hPa NE 5.5mph /  8.8km/h 13mph /  20.9km/h 26.7% 0in /  0.0mm
13:34 93.7 °F /  34.3 °C 53.2 °F /  11.8 °C 30in /  1014.9hPa NE 6.2mph /  10km/h 13mph /  20.9km/h 25.7% 0in /  0.0mm
13:39 93.6 °F /  34.2 °C 52 °F /  11.1 °C 30in /  1014.9hPa NE 6.5mph /  10.5km/h 14mph /  22.5km/h 24.6% 0in /  0.0mm
13:44 93.9 °F /  34.4 °C 50.9 °F /  10.5 °C 30in /  1014.9hPa ENE 7.6mph /  12.2km/h 15.2mph /  24.5km/h 23.4% 0in /  0.0mm
13:49 93.9 °F /  34.4 °C 50 °F /  10 °C 30in /  1014.9hPa Este 7.7mph /  12.4km/h 15.2mph /  24.5km/h 22.6% 0in /  0.0mm
13:54 93.9 °F /  34.4 °C 48.6 °F /  9.2 °C 30in /  1014.9hPa Este 8.1mph /  13km/h 17.3mph /  27.8km/h 21.4% 0in /  0.0mm
13:59 94.1 °F /  34.5 °C 48.2 °F /  9 °C 30in /  1014.9hPa ENE 8.3mph /  13.3km/h 17mph /  27.4km/h 21% 0in /  0.0mm
14:04 94.5 °F /  34.7 °C 48.4 °F /  9.1 °C 30in /  1014.9hPa ENE 8.7mph /  14km/h 16mph /  25.7km/h 20.9% 0in /  0.0mm
14:09 94.6 °F /  34.8 °C 47.7 °F /  8.7 °C 30in /  1014.9hPa ENE 8.6mph /  13.9km/h 17.3mph /  27.8km/h 20.2% 0in /  0.0mm
14:14 94.8 °F /  34.9 °C 47.7 °F /  8.7 °C 30in /  1014.9hPa ENE 8.5mph /  13.7km/h 17mph /  27.4km/h 20% 0in /  0.0mm
14:19 94.8 °F /  34.9 °C 46.9 °F /  8.3 °C 30in /  1014.9hPa NE 8.1mph /  13km/h 14.5mph /  23.3km/h 19.7% 0in /  0.0mm
14:24 94.6 °F /  34.8 °C 47.3 °F /  8.5 °C 30in /  1014.8hPa NE 6.9mph /  11.1km/h 16.3mph /  26.2km/h 20% 0in /  0.0mm
14:29 94.5 °F /  34.7 °C 47.1 °F /  8.4 °C 30in /  1014.8hPa ENE 7.5mph /  12.1km/h 16.1mph /  25.9km/h 20% 0in /  0.0mm
14:34 94.5 °F /  34.7 °C 47.1 °F /  8.4 °C 30in /  1014.8hPa NE 9.7mph /  15.6km/h 16mph /  25.7km/h 19.9% 0in /  0.0mm
14:39 94.8 °F /  34.9 °C 47.1 °F /  8.4 °C 30in /  1014.5hPa NE 9.4mph /  15.2km/h 17.5mph /  28.2km/h 19.7% 0in /  0.0mm
14:44 94.5 °F /  34.7 °C 46.4 °F /  8 °C 30in /  1014.5hPa NE 8.7mph /  14km/h 17.5mph /  28.2km/h 19.4% 0in /  0.0mm
14:49 94.6 °F /  34.8 °C 47.3 °F /  8.5 °C 30in /  1014.6hPa NE 9.2mph /  14.8km/h 19.2mph /  30.9km/h 20% 0in /  0.0mm
14:54 94.6 °F /  34.8 °C 46.4 °F /  8 °C 30in /  1014.6hPa NE 10.7mph /  17.2km/h 20mph /  32.2km/h 19.3% 0in /  0.0mm
14:59 94.1 °F /  34.5 °C 45 °F /  7.2 °C 30in /  1014.6hPa NE 10.7mph /  17.2km/h 20mph /  32.2km/h 18.6% 0in /  0.0mm
15:04 94.3 °F /  34.6 °C 45.7 °F /  7.6 °C 30in /  1014.6hPa NE 10.7mph /  17.2km/h 18.5mph /  29.8km/h 19% 0in /  0.0mm
15:09 94.1 °F /  34.5 °C 46.8 °F /  8.2 °C 30in /  1014.6hPa NE 10.6mph /  17km/h 19mph /  30.6km/h 19.8% 0in /  0.0mm
15:14 94.5 °F /  34.7 °C 47.1 °F /  8.4 °C 30in /  1014.6hPa ENE 10.2mph /  16.4km/h 18mph /  29km/h 20% 0in /  0.0mm
15:19 94.6 °F /  34.8 °C 47.7 °F /  8.7 °C 30in /  1014.6hPa ENE 9.8mph /  15.8km/h 17mph /  27.4km/h 20.3% 0in /  0.0mm
15:24 94.5 °F /  34.7 °C 48 °F /  8.9 °C 30in /  1014.6hPa NE 8.5mph /  13.7km/h 16.1mph /  25.9km/h 20.7% 0in /  0.0mm
15:29 94.6 °F /  34.8 °C 47.1 °F /  8.4 °C 30in /  1014.6hPa NE 8.5mph /  13.7km/h 16mph /  25.7km/h 19.8% 0in /  0.0mm
15:34 94.5 °F /  34.7 °C 46.9 °F /  8.3 °C 30in /  1014.6hPa NE 8.7mph /  14km/h 18.5mph /  29.8km/h 19.9% 0in /  0.0mm
15:39 94.5 °F /  34.7 °C 47.7 °F /  8.7 °C 30in /  1014.6hPa ENE 9mph /  14.5km/h 19mph /  30.6km/h 20.4% 0in /  0.0mm
15:44 94.6 °F /  34.8 °C 48.4 °F /  9.1 °C 30in /  1014.6hPa NE 10mph /  16.1km/h 17.5mph /  28.2km/h 20.8% 0in /  0.0mm
15:49 94.6 °F /  34.8 °C 48.7 °F /  9.3 °C 30in /  1014.6hPa NE 9.7mph /  15.6km/h 18.4mph /  29.6km/h 21.2% 0in /  0.0mm
15:54 94.5 °F /  34.7 °C 48.7 °F /  9.3 °C 30in /  1014.5hPa ENE 8.7mph /  14km/h 19.6mph /  31.5km/h 21.2% 0in /  0.0mm
15:59 94.3 °F /  34.6 °C 50.5 °F /  10.3 °C 30in /  1014.5hPa Este 8.4mph /  13.5km/h 20mph /  32.2km/h 22.8% 0in /  0.0mm
16:04 94.3 °F /  34.6 °C 50.7 °F /  10.4 °C 30in /  1014.5hPa Este 7.6mph /  12.2km/h 15.9mph /  25.6km/h 23% 0in /  0.0mm
16:09 94.1 °F /  34.5 °C 50 °F /  10 °C 30in /  1014.5hPa ENE 7.9mph /  12.7km/h 17.5mph /  28.2km/h 22.5% 0in /  0.0mm
16:14 93.9 °F /  34.4 °C 50.4 °F /  10.2 °C 30in /  1014.5hPa ENE 8.7mph /  14km/h 17mph /  27.4km/h 22.9% 0in /  0.0mm
16:19 93.9 °F /  34.4 °C 50 °F /  10 °C 30in /  1014.5hPa ENE 8.4mph /  13.5km/h 14mph /  22.5km/h 22.6% 0in /  0.0mm
16:24 93.9 °F /  34.4 °C 50.7 °F /  10.4 °C 30in /  1014.4hPa NE 7.6mph /  12.2km/h 18.4mph /  29.6km/h 23.1% 0in /  0.0mm
16:29 93.9 °F /  34.4 °C 50.5 °F /  10.3 °C 30in /  1014.4hPa ENE 8.1mph /  13km/h 18mph /  29km/h 23.1% 0in /  0.0mm
16:34 93.9 °F /  34.4 °C 50.5 °F /  10.3 °C 30in /  1014.4hPa ENE 9.7mph /  15.6km/h 18.4mph /  29.6km/h 23% 0in /  0.0mm
16:39 93.9 °F /  34.4 °C 50.9 °F /  10.5 °C 30in /  1014.3hPa ENE 9.2mph /  14.8km/h 18mph /  29km/h 23.2% 0in /  0.0mm
16:44 93.9 °F /  34.4 °C 51.3 °F /  10.7 °C 30in /  1014.3hPa NE 7.6mph /  12.2km/h 17.3mph /  27.8km/h 23.8% 0in /  0.0mm
16:49 93.6 °F /  34.2 °C 50.9 °F /  10.5 °C 30in /  1014.3hPa ENE 8.1mph /  13.1km/h 17mph /  27.4km/h 23.5% 0in /  0.0mm
16:54 93.7 °F /  34.3 °C 51.4 °F /  10.8 °C 30in /  1014.3hPa ENE 10mph /  16.1km/h 16.1mph /  25.9km/h 23.9% 0in /  0.0mm
16:59 93.6 °F /  34.2 °C 51.3 °F /  10.7 °C 30in /  1014.3hPa NE 9.4mph /  15.2km/h 16.1mph /  25.9km/h 23.9% 0in /  0.0mm
17:04 93.7 °F /  34.3 °C 51.6 °F /  10.9 °C 30in /  1014.3hPa NE 8.1mph /  13km/h 16.3mph /  26.2km/h 24.2% 0in /  0.0mm
17:09 93.9 °F /  34.4 °C 52.7 °F /  11.5 °C 30in /  1014.3hPa ENE 8.1mph /  13km/h 16mph /  25.7km/h 24.9% 0in /  0.0mm
17:14 93.7 °F /  34.3 °C 51.8 °F /  11 °C 30in /  1014.3hPa ENE 8.1mph /  13km/h 17.5mph /  28.2km/h 24.4% 0in /  0.0mm
17:19 93.6 °F /  34.2 °C 51.4 °F /  10.8 °C 30in /  1014.3hPa ENE 8.3mph /  13.3km/h 19mph /  30.6km/h 24.2% 0in /  0.0mm
17:24 93.4 °F /  34.1 °C 51.6 °F /  10.9 °C 29.9in /  1014.1hPa ENE 8.7mph /  14km/h 19mph /  30.6km/h 24.4% 0in /  0.0mm
17:29 93.4 °F /  34.1 °C 51.1 °F /  10.6 °C 29.9in /  1014.1hPa ENE 8.9mph /  14.4km/h 17.5mph /  28.2km/h 23.9% 0in /  0.0mm
17:34 93.2 °F /  34 °C 50.9 °F /  10.5 °C 29.9in /  1014.1hPa NE 9.7mph /  15.6km/h 19.2mph /  30.9km/h 23.9% 0in /  0.0mm
17:39 93 °F /  33.9 °C 51.3 °F /  10.7 °C 29.9in /  1014.1hPa ENE 9.8mph /  15.7km/h 20mph /  32.2km/h 24.3% 0in /  0.0mm
17:44 92.8 °F /  33.8 °C 51.4 °F /  10.8 °C 29.9in /  1014.1hPa NE 10.2mph /  16.4km/h 20mph /  32.2km/h 24.7% 0in /  0.0mm
17:49 92.8 °F /  33.8 °C 51.4 °F /  10.8 °C 29.9in /  1014.1hPa ENE 9.9mph /  16km/h 17mph /  27.4km/h 24.6% 0in /  0.0mm
17:54 93 °F /  33.9 °C 51.3 °F /  10.7 °C 29.9in /  1014.1hPa ENE 8.7mph /  14km/h 17.3mph /  27.8km/h 24.4% 0in /  0.0mm
17:59 92.8 °F /  33.8 °C 50.9 °F /  10.5 °C 29.9in /  1014.1hPa NE 8.6mph /  13.9km/h 17mph /  27.4km/h 24.1% 0in /  0.0mm
18:04 93 °F /  33.9 °C 50.9 °F /  10.5 °C 29.9in /  1014.1hPa NE 8.5mph /  13.7km/h 15.6mph /  25.1km/h 24% 0in /  0.0mm
18:09 93 °F /  33.9 °C 51.1 °F /  10.6 °C 29.9in /  1014.0hPa NE 8.5mph /  13.7km/h 16.3mph /  26.2km/h 24.2% 0in /  0.0mm
18:14 92.7 °F /  33.7 °C 51.1 °F /  10.6 °C 29.9in /  1014.0hPa ENE 8.7mph /  14km/h 16mph /  25.7km/h 24.6% 0in /  0.0mm
18:19 92.5 °F /  33.6 °C 50.9 °F /  10.5 °C 29.9in /  1014.0hPa ENE 8.8mph /  14.1km/h 15mph /  24.1km/h 24.4% 0in /  0.0mm
18:24 92.5 °F /  33.6 °C 51.4 °F /  10.8 °C 29.9in /  1013.9hPa ENE 9.2mph /  14.8km/h 15mph /  24.1km/h 25% 0in /  0.0mm
18:29 92.5 °F /  33.6 °C 52 °F /  11.1 °C 29.9in /  1013.9hPa NE 8.9mph /  14.4km/h 16.3mph /  26.2km/h 25.4% 0in /  0.0mm
18:34 92.5 °F /  33.6 °C 52.7 °F /  11.5 °C 29.9in /  1013.9hPa NE 8.1mph /  13km/h 16.1mph /  25.9km/h 26% 0in /  0.0mm
18:39 92.7 °F /  33.7 °C 52.7 °F /  11.5 °C 29.9in /  1013.8hPa NE 8.1mph /  13km/h 16mph /  25.7km/h 26% 0in /  0.0mm
18:44 92.7 °F /  33.7 °C 52 °F /  11.1 °C 29.9in /  1013.8hPa NE 8.1mph /  13km/h 16.1mph /  25.9km/h 25.3% 0in /  0.0mm
18:49 92.5 °F /  33.6 °C 52.7 °F /  11.5 °C 29.9in /  1013.8hPa NE 8.2mph /  13.2km/h 16.3mph /  26.2km/h 26% 0in /  0.0mm
18:54 92.1 °F /  33.4 °C 52.3 °F /  11.3 °C 29.9in /  1013.6hPa NE 8.7mph /  14km/h 16.1mph /  25.9km/h 26% 0in /  0.0mm
18:59 91.9 °F /  33.3 °C 52.9 °F /  11.6 °C 29.9in /  1013.6hPa NE 9.1mph /  14.6km/h 16.1mph /  25.9km/h 26.7% 0in /  0.0mm
19:04 91.8 °F /  33.2 °C 53.6 °F /  12 °C 29.9in /  1013.6hPa NE 10mph /  16.1km/h 16mph /  25.7km/h 27.6% 0in /  0.0mm
19:09 91.6 °F /  33.1 °C 53.4 °F /  11.9 °C 29.9in /  1013.4hPa NE 9.7mph /  15.6km/h 16mph /  25.7km/h 27.5% 0in /  0.0mm
19:14 91.6 °F /  33.1 °C 54 °F /  12.2 °C 29.9in /  1013.4hPa NE 8.7mph /  14km/h 15mph /  24.1km/h 28% 0in /  0.0mm
19:19 91.4 °F /  33 °C 53.6 °F /  12 °C 29.9in /  1013.6hPa NE 8.6mph /  13.8km/h 16.1mph /  25.9km/h 28% 0in /  0.0mm
19:24 91.2 °F /  32.9 °C 53.1 °F /  11.7 °C 29.9in /  1013.6hPa NE 8.1mph /  13km/h 16.3mph /  26.2km/h 27.4% 0in /  0.0mm
19:29 91 °F /  32.8 °C 53.2 °F /  11.8 °C 29.9in /  1013.6hPa NE 8.4mph /  13.6km/h 16mph /  25.7km/h 27.8% 0in /  0.0mm
19:34 90.9 °F /  32.7 °C 53.8 °F /  12.1 °C 29.9in /  1013.6hPa NE 9.7mph /  15.6km/h 15.6mph /  25.1km/h 28.5% 0in /  0.0mm
19:39 90.7 °F /  32.6 °C 54.1 °F /  12.3 °C 29.9in /  1013.6hPa NE 9.4mph /  15.2km/h 16.1mph /  25.9km/h 29% 0in /  0.0mm
19:44 90.5 °F /  32.5 °C 53.8 °F /  12.1 °C 29.9in /  1013.6hPa NE 8.1mph /  13km/h 16.1mph /  25.9km/h 29% 0in /  0.0mm
19:49 90.1 °F /  32.3 °C 54.5 °F /  12.5 °C 29.9in /  1013.7hPa NE 8.4mph /  13.5km/h 16mph /  25.7km/h 30% 0in /  0.0mm
19:54 90.1 °F /  32.3 °C 54.5 °F /  12.5 °C 29.9in /  1013.7hPa NE 9.2mph /  14.8km/h 13.7mph /  22km/h 30.1% 0in /  0.0mm
19:59 90 °F /  32.2 °C 54.9 °F /  12.7 °C 29.9in /  1013.7hPa ENE 8.6mph /  13.9km/h 14mph /  22.5km/h 30.6% 0in /  0.0mm
20:04 89.8 °F /  32.1 °C 55 °F /  12.8 °C 29.9in /  1013.8hPa ENE 7.4mph /  11.9km/h 13mph /  20.9km/h 31% 0in /  0.0mm
20:09 89.4 °F /  31.9 °C 55.6 °F /  13.1 °C 29.9in /  1013.8hPa ENE 7.1mph /  11.5km/h 13mph /  20.9km/h 31.9% 0in /  0.0mm
20:14 89.4 °F /  31.9 °C 55.9 °F /  13.3 °C 29.9in /  1013.8hPa ENE 6.4mph /  10.3km/h 13mph /  20.9km/h 32.3% 0in /  0.0mm
20:19 89.2 °F /  31.8 °C 56.3 °F /  13.5 °C 29.9in /  1013.8hPa Este 6.4mph /  10.3km/h 12mph /  19.3km/h 33% 0in /  0.0mm
20:24 89.1 °F /  31.7 °C 56.1 °F /  13.4 °C 29.9in /  1013.8hPa ENE 6.4mph /  10.3km/h 12mph /  19.3km/h 33% 0in /  0.0mm
20:29 89.1 °F /  31.7 °C 56.1 °F /  13.4 °C 29.9in /  1013.8hPa ENE 5.9mph /  9.5km/h 8.5mph /  13.7km/h 33% 0in /  0.0mm
20:34 88.9 °F /  31.6 °C 56.1 °F /  13.4 °C 29.9in /  1013.9hPa ENE 4.3mph /  6.9km/h 10.7mph /  17.2km/h 33% 0in /  0.0mm
20:39 88.7 °F /  31.5 °C 55.9 °F /  13.3 °C 29.9in /  1013.9hPa ENE 4.7mph /  7.5km/h 11.8mph /  19km/h 33% 0in /  0.0mm
20:44 88.3 °F /  31.3 °C 55.8 °F /  13.2 °C 29.9in /  1013.9hPa ENE 5.9mph /  9.5km/h 12mph /  19.3km/h 33.3% 0in /  0.0mm
20:49 88.2 °F /  31.2 °C 56.3 °F /  13.5 °C 30in /  1014.2hPa ENE 5.7mph /  9.2km/h 9mph /  14.5km/h 34% 0in /  0.0mm
20:54 88.2 °F /  31.2 °C 56.1 °F /  13.4 °C 30in /  1014.2hPa ENE 5.2mph /  8.4km/h 9.2mph /  14.8km/h 34% 0in /  0.0mm
20:59 87.8 °F /  31 °C 55.9 °F /  13.3 °C 30in /  1014.2hPa ENE 5mph /  8.1km/h 9mph /  14.5km/h 34% 0in /  0.0mm
21:04 87.6 °F /  30.9 °C 55.8 °F /  13.2 °C 30in /  1014.2hPa NE 4.7mph /  7.6km/h 7.4mph /  11.9km/h 34% 0in /  0.0mm
21:09 87.4 °F /  30.8 °C 55.6 °F /  13.1 °C 30in /  1014.2hPa NE 4.6mph /  7.4km/h 7.4mph /  11.9km/h 34% 0in /  0.0mm
21:14 87.3 °F /  30.7 °C 55.6 °F /  13.1 °C 30in /  1014.2hPa NE 4.3mph /  6.9km/h 8.5mph /  13.7km/h 34.2% 0in /  0.0mm
21:19 86.9 °F /  30.5 °C 55.9 °F /  13.3 °C 30in /  1014.3hPa NE 4.5mph /  7.3km/h 9mph /  14.5km/h 35% 0in /  0.0mm
21:24 86.5 °F /  30.3 °C 56.3 °F /  13.5 °C 30in /  1014.3hPa NE 5.2mph /  8.4km/h 8.1mph /  13km/h 35.7% 0in /  0.0mm
21:29 86.4 °F /  30.2 °C 56.5 °F /  13.6 °C 30in /  1014.3hPa NE 5.2mph /  8.4km/h 8mph /  12.9km/h 36.4% 0in /  0.0mm
21:34 85.8 °F /  29.9 °C 56.7 °F /  13.7 °C 30in /  1014.4hPa NE 5.4mph /  8.7km/h 9.2mph /  14.8km/h 37.3% 0in /  0.0mm
21:39 85.6 °F /  29.8 °C 57 °F /  13.9 °C 30in /  1014.4hPa NE 5.4mph /  8.7km/h 9mph /  14.5km/h 38% 0in /  0.0mm
21:44 85.5 °F /  29.7 °C 57.6 °F /  14.2 °C 30in /  1014.4hPa NE 5.4mph /  8.7km/h 9.2mph /  14.8km/h 38.8% 0in /  0.0mm
21:49 85.1 °F /  29.5 °C 57.9 °F /  14.4 °C 30in /  1014.4hPa NE 5.4mph /  8.7km/h 9mph /  14.5km/h 39.9% 0in /  0.0mm
21:54 84.7 °F /  29.3 °C 57.9 °F /  14.4 °C 30in /  1014.3hPa NE 5.4mph /  8.7km/h 8.1mph /  13km/h 40.2% 0in /  0.0mm
21:59 84.6 °F /  29.2 °C 58.1 °F /  14.5 °C 30in /  1014.3hPa NE 5.3mph /  8.6km/h 8.1mph /  13km/h 41% 0in /  0.0mm
22:04 84 °F /  28.9 °C 58.1 °F /  14.5 °C 30in /  1014.4hPa NE 5.2mph /  8.4km/h 8.1mph /  13km/h 41.5% 0in /  0.0mm
22:09 83.8 °F /  28.8 °C 58.3 °F /  14.6 °C 30in /  1014.4hPa NE 5.2mph /  8.4km/h 7mph /  11.3km/h 42% 0in /  0.0mm
22:14 83.7 °F /  28.7 °C 58.6 °F /  14.8 °C 30in /  1014.4hPa NNE 5.2mph /  8.4km/h 7mph /  11.3km/h 42.8% 0in /  0.0mm
22:19 83.3 °F /  28.5 °C 58.6 °F /  14.8 °C 30in /  1014.4hPa NE 5mph /  8km/h 7mph /  11.3km/h 43.3% 0in /  0.0mm
22:24 82.9 °F /  28.3 °C 59 °F /  15 °C 30in /  1014.4hPa NE 4.3mph /  6.9km/h 8.1mph /  13km/h 44.4% 0in /  0.0mm
22:29 82.8 °F /  28.2 °C 59.4 °F /  15.2 °C 30in /  1014.4hPa NE 4.4mph /  7.1km/h 8.1mph /  13km/h 45.4% 0in /  0.0mm
22:34 82.4 °F /  28 °C 59.7 °F /  15.4 °C 30in /  1014.7hPa NE 4.7mph /  7.6km/h 8mph /  12.9km/h 46.2% 0in /  0.0mm
22:39 82.2 °F /  27.9 °C 59.9 °F /  15.5 °C 30in /  1014.7hPa NE 4.5mph /  7.2km/h 7mph /  11.3km/h 47% 0in /  0.0mm
22:44 82 °F /  27.8 °C 59.9 °F /  15.5 °C 30in /  1014.7hPa NE 3.6mph /  5.8km/h 6mph /  9.7km/h 47.2% 0in /  0.0mm
22:49 81.9 °F /  27.7 °C 60.1 °F /  15.6 °C 30in /  1014.7hPa NE 3.7mph /  5.9km/h 6.9mph /  11.1km/h 48% 0in /  0.0mm
22:54 81.7 °F /  27.6 °C 60.1 °F /  15.6 °C 30in /  1014.7hPa NE 4mph /  6.5km/h 7mph /  11.3km/h 48% 0in /  0.0mm
22:59 81.5 °F /  27.5 °C 59.9 °F /  15.5 °C 30in /  1014.7hPa NE 4mph /  6.5km/h 7mph /  11.3km/h 48% 0in /  0.0mm
23:04 81.5 °F /  27.5 °C 59.9 °F /  15.5 °C 30in /  1014.8hPa NE 4mph /  6.5km/h 6.9mph /  11.1km/h 48% 0in /  0.0mm
23:09 81.3 °F /  27.4 °C 60.1 °F /  15.6 °C 30in /  1014.8hPa NE 4.3mph /  6.9km/h 8.1mph /  13km/h 48.5% 0in /  0.0mm
23:14 81.1 °F /  27.3 °C 60.3 °F /  15.7 °C 30in /  1014.8hPa NE 5.2mph /  8.4km/h 8mph /  12.9km/h 49% 0in /  0.0mm
23:19 81.1 °F /  27.3 °C 60.3 °F /  15.7 °C 30in /  1014.8hPa NE 5.2mph /  8.4km/h 8mph /  12.9km/h 49% 0in /  0.0mm
23:24 81.1 °F /  27.3 °C 60.3 °F /  15.7 °C 30in /  1014.8hPa NE 4.1mph /  6.6km/h 5.8mph /  9.3km/h 49% 0in /  0.0mm
23:29 81.1 °F /  27.3 °C 60.3 °F /  15.7 °C 30in /  1014.8hPa NE 4mph /  6.5km/h 6.9mph /  11.1km/h 49% 0in /  0.0mm
23:34 81.1 °F /  27.3 °C 60.3 °F /  15.7 °C 30in /  1014.9hPa NE 4mph /  6.5km/h 7mph /  11.3km/h 49.1% 0in /  0.0mm
23:39 81 °F /  27.2 °C 60.6 °F /  15.9 °C 30in /  1014.9hPa NE 3.9mph /  6.3km/h 6.2mph /  10km/h 50% 0in /  0.0mm
23:44 81 °F /  27.2 °C 60.6 °F /  15.9 °C 30in /  1014.9hPa NE 3.6mph /  5.8km/h 6.4mph /  10.3km/h 50% 0in /  0.0mm
23:49 81 °F /  27.2 °C 60.4 °F /  15.8 °C 30in /  1014.9hPa NE 3.6mph /  5.8km/h 6.2mph /  10km/h 50% 0in /  0.0mm
23:54 80.8 °F /  27.1 °C 60.4 °F /  15.8 °C 30in /  1014.9hPa NE 3.6mph /  5.8km/h 6.9mph /  11.1km/h 50% 0in /  0.0mm
23:59 80.4 °F /  26.9 °C 60.6 °F /  15.9 °C 30in /  1014.9hPa NE 3.7mph /  6km/h 7mph /  11.3km/h 50.9% 0in /  0.0mm
Murcia-Puente Tocinos, España
Compliments of Weather Underground - 3 mb

La estación de MeteoMurcia.com, publica sus datos en los siguientes proyectos:

Weather Underground PWS IMURCIAP2 Meteoclimatic www.awekas.at

W3Counter
Web Analytics